createdAt,value
2023-04-18T00:00:44.270Z,101169.53
2023-04-18T00:03:16.592Z,101170.69
2023-04-18T00:05:47.909Z,101167.06
2023-04-18T00:08:16.340Z,101163.22
2023-04-18T00:10:46.609Z,101164.19
2023-04-18T00:13:20.869Z,101163.22
2023-04-18T00:15:54.027Z,101165.25
2023-04-18T00:18:22.293Z,101162.78
2023-04-18T00:20:50.904Z,101155.44
2023-04-18T00:23:21.407Z,101158.72
2023-04-18T00:25:49.963Z,101159.16
2023-04-18T00:28:19.867Z,101152.38
2023-04-18T00:30:52.544Z,101152.03
2023-04-18T00:33:21.178Z,101152.66
2023-04-18T00:35:49.343Z,101152.94
2023-04-18T00:38:17.803Z,101147.75
2023-04-18T00:40:46.179Z,101155.31
2023-04-18T00:43:15.764Z,101151.75
2023-04-18T00:45:44.843Z,101149.88
2023-04-18T00:48:15.531Z,101154.97
2023-04-18T00:50:45.423Z,101152.31
2023-04-18T00:53:16.388Z,101147.28
2023-04-18T00:55:46.434Z,101140.75
2023-04-18T00:58:15.472Z,101138.44
2023-04-18T01:00:44.555Z,101143.38
2023-04-18T01:03:15.448Z,101138.34
2023-04-18T01:05:44.255Z,101136.63
2023-04-18T01:08:12.840Z,101139.72
2023-04-18T01:10:41.802Z,101143.00
2023-04-18T01:13:15.153Z,101139.91
2023-04-18T01:15:44.608Z,101136.88
2023-04-18T01:18:13.919Z,101140.81
2023-04-18T01:20:47.315Z,101132.97
2023-04-18T01:23:16.251Z,101135.34
2023-04-18T01:25:47.108Z,101137.59
2023-04-18T01:28:16.429Z,101142.22
2023-04-18T01:30:45.140Z,101140.03
2023-04-18T01:33:13.544Z,101132.59
2023-04-18T01:35:43.145Z,101126.19
2023-04-18T01:38:11.440Z,101135.25
2023-04-18T01:40:40.187Z,101128.53
2023-04-18T01:43:10.812Z,101128.88
2023-04-18T01:45:40.018Z,101126.31
2023-04-18T01:48:12.115Z,101128.19
2023-04-18T01:50:43.392Z,101117.50
2023-04-18T01:53:12.561Z,101116.34
2023-04-18T01:55:42.338Z,101117.16
2023-04-18T01:58:11.960Z,101115.22
2023-04-18T02:00:41.205Z,101105.94
2023-04-18T02:03:10.066Z,101116.59
2023-04-18T02:05:38.547Z,101106.94
2023-04-18T02:08:11.618Z,101105.91
2023-04-18T02:10:40.641Z,101112.91
2023-04-18T02:13:09.124Z,101113.53
2023-04-18T02:15:39.136Z,101125.50
2023-04-18T02:18:09.599Z,101119.34
2023-04-18T02:20:41.366Z,101120.25
2023-04-18T02:23:09.943Z,101121.63
2023-04-18T02:25:38.536Z,101117.06
2023-04-18T02:28:07.621Z,101113.59
2023-04-18T02:30:36.062Z,101113.94
2023-04-18T02:33:06.828Z,101117.97
2023-04-18T02:35:35.187Z,101112.91
2023-04-18T02:38:03.348Z,101114.88
2023-04-18T02:40:33.183Z,101116.53
2023-04-18T02:43:02.606Z,101114.91
2023-04-18T02:45:30.782Z,101118.84
2023-04-18T02:48:04.474Z,101125.53
2023-04-18T02:50:36.601Z,101127.38
2023-04-18T02:53:05.239Z,101122.41
2023-04-18T02:55:46.930Z,101125.09
2023-04-18T02:58:15.646Z,101122.19
2023-04-18T03:01:18.996Z,101117.41
2023-04-18T03:03:57.040Z,101125.78
2023-04-18T03:06:41.701Z,101128.88
2023-04-18T03:09:10.185Z,101126.69
2023-04-18T03:11:44.905Z,101126.22
2023-04-18T03:14:15.000Z,101129.75
2023-04-18T03:16:53.895Z,101129.53
2023-04-18T03:19:28.036Z,101126.56
2023-04-18T03:21:59.288Z,101129.31
2023-04-18T03:24:29.385Z,101129.69
2023-04-18T03:27:01.409Z,101123.78
2023-04-18T03:29:30.316Z,101131.84
2023-04-18T03:31:59.193Z,101120.97
2023-04-18T03:34:31.496Z,101124.56
2023-04-18T03:37:03.213Z,101121.94
2023-04-18T03:39:35.891Z,101119.25
2023-04-18T03:42:05.266Z,101118.47
2023-04-18T03:44:35.172Z,101114.78
2023-04-18T03:47:05.574Z,101125.16
2023-04-18T03:49:40.505Z,101120.00
2023-04-18T03:52:11.053Z,101115.97
2023-04-18T03:54:39.472Z,101123.31
2023-04-18T03:57:08.419Z,101122.16
2023-04-18T03:59:39.217Z,101126.25
2023-04-18T04:02:08.385Z,101121.78
2023-04-18T04:04:37.482Z,101124.34
2023-04-18T04:07:06.077Z,101119.84
2023-04-18T04:09:35.915Z,101122.13
2023-04-18T04:12:04.263Z,101118.69
2023-04-18T04:14:32.976Z,101116.22
2023-04-18T04:17:02.110Z,101112.47
2023-04-18T04:19:31.693Z,101114.22
2023-04-18T04:22:10.130Z,101116.19
2023-04-18T04:24:42.737Z,101125.44
2023-04-18T04:27:12.629Z,101123.41
2023-04-18T04:29:43.678Z,101121.84
2023-04-18T04:32:12.987Z,101123.06
2023-04-18T04:34:43.449Z,101120.75
2023-04-18T04:37:15.277Z,101113.66
2023-04-18T04:40:00.500Z,101116.63
2023-04-18T04:42:43.879Z,101124.94
2023-04-18T04:45:20.175Z,101122.22
2023-04-18T04:47:48.468Z,101121.44
2023-04-18T04:50:16.798Z,101124.19
2023-04-18T04:52:46.007Z,101126.69
2023-04-18T04:55:24.597Z,101131.66
2023-04-18T04:57:52.763Z,101127.63
2023-04-18T05:00:39.984Z,101134.72
2023-04-18T05:03:12.719Z,101135.22
2023-04-18T05:05:41.242Z,101136.91
2023-04-18T05:08:09.661Z,101136.34
2023-04-18T05:10:39.584Z,101137.75
2023-04-18T05:13:08.242Z,101135.41
2023-04-18T05:15:37.921Z,101145.56
2023-04-18T05:18:06.582Z,101143.94
2023-04-18T05:20:35.077Z,101141.75
2023-04-18T05:23:03.524Z,101141.56
2023-04-18T05:25:33.538Z,101143.00
2023-04-18T05:28:05.296Z,101148.59
2023-04-18T05:30:33.659Z,101159.63
2023-04-18T05:33:02.546Z,101164.13
2023-04-18T05:35:32.060Z,101163.16
2023-04-18T05:38:00.868Z,101163.44
2023-04-18T05:40:30.263Z,101159.22
2023-04-18T05:42:58.729Z,101163.16
2023-04-18T05:45:28.798Z,101168.97
2023-04-18T05:47:57.301Z,101171.00
2023-04-18T05:50:26.092Z,101179.50
2023-04-18T05:52:54.954Z,101176.97
2023-04-18T05:55:23.468Z,101182.56
2023-04-18T05:57:52.447Z,101180.03
2023-04-18T06:00:21.637Z,101186.44
2023-04-18T06:02:55.309Z,101183.47
2023-04-18T06:05:24.512Z,101191.97
2023-04-18T06:07:53.052Z,101189.66
2023-04-18T06:10:23.197Z,101192.88
2023-04-18T06:12:52.007Z,101193.41
2023-04-18T06:15:21.335Z,101205.50
2023-04-18T06:17:51.306Z,101206.16
2023-04-18T06:20:31.402Z,101202.81
2023-04-18T06:23:00.030Z,101204.97
2023-04-18T06:25:28.862Z,101211.47
2023-04-18T06:27:57.504Z,101202.75
2023-04-18T06:30:26.075Z,101208.56
2023-04-18T06:32:56.305Z,101208.78
2023-04-18T06:35:26.648Z,101209.56
2023-04-18T06:37:55.597Z,101207.63
2023-04-18T06:40:26.364Z,101211.25
2023-04-18T06:42:55.524Z,101217.34
2023-04-18T06:45:24.342Z,101205.97
2023-04-18T06:47:53.535Z,101212.38
2023-04-18T06:50:24.787Z,101207.03
2023-04-18T06:52:53.151Z,101214.91
2023-04-18T06:55:22.311Z,101212.69
2023-04-18T06:57:50.747Z,101218.53
2023-04-18T07:00:19.441Z,101224.50
2023-04-18T07:02:47.991Z,101227.13
2023-04-18T07:05:16.174Z,101219.41
2023-04-18T07:07:46.841Z,101214.78
2023-04-18T07:10:15.403Z,101223.88
2023-04-18T07:12:44.822Z,101223.00
2023-04-18T07:15:13.186Z,101226.59
2023-04-18T07:17:45.648Z,101218.22
2023-04-18T07:20:14.626Z,101221.94
2023-04-18T07:22:44.179Z,101231.34
2023-04-18T07:25:14.160Z,101221.09
2023-04-18T07:27:42.639Z,101221.41
2023-04-18T07:30:12.053Z,101231.53
2023-04-18T07:32:41.165Z,101231.75
2023-04-18T07:35:10.169Z,101224.09
2023-04-18T07:37:38.865Z,101231.75
2023-04-18T07:40:10.225Z,101231.53
2023-04-18T07:42:39.959Z,101241.00
2023-04-18T07:45:08.836Z,101234.63
2023-04-18T07:47:38.265Z,101229.38
2023-04-18T07:50:07.535Z,101232.03
2023-04-18T07:52:36.817Z,101230.22
2023-04-18T07:55:09.210Z,101230.81
2023-04-18T07:57:39.285Z,101229.31
2023-04-18T08:00:09.368Z,101232.00
2023-04-18T08:02:45.008Z,101231.28
2023-04-18T08:05:13.984Z,101230.56
2023-04-18T08:07:42.134Z,101233.88
2023-04-18T08:10:11.462Z,101237.50
2023-04-18T08:12:41.703Z,101239.97
2023-04-18T08:15:10.789Z,101236.09
2023-04-18T08:17:43.821Z,101237.03
2023-04-18T08:20:13.079Z,101232.06
2023-04-18T08:22:53.672Z,101236.22
2023-04-18T08:25:29.998Z,101241.56
2023-04-18T08:28:00.134Z,101237.09
2023-04-18T08:30:29.387Z,101230.25
2023-04-18T08:32:57.667Z,101240.06
2023-04-18T08:35:25.994Z,101238.59
2023-04-18T08:37:55.519Z,101244.19
2023-04-18T08:40:23.949Z,101240.03
2023-04-18T08:42:54.312Z,101238.25
2023-04-18T08:45:26.257Z,101245.16
2023-04-18T08:47:56.142Z,101247.56
2023-04-18T08:50:24.938Z,101234.25
2023-04-18T08:52:56.488Z,101248.38
2023-04-18T08:55:25.273Z,101249.78
2023-04-18T08:57:55.747Z,101251.03
2023-04-18T09:00:30.782Z,101257.53
2023-04-18T09:02:59.432Z,101247.94
2023-04-18T09:05:28.516Z,101257.94
2023-04-18T09:07:58.423Z,101259.56
2023-04-18T09:10:29.094Z,101258.09
2023-04-18T09:12:58.752Z,101240.28
2023-04-18T09:15:29.229Z,101237.22
2023-04-18T09:18:00.562Z,101248.88
2023-04-18T09:20:39.225Z,101241.09
2023-04-18T09:23:10.788Z,101242.03
2023-04-18T09:25:46.438Z,101244.06
2023-04-18T09:28:26.991Z,101236.84
2023-04-18T09:31:01.490Z,101244.03
2023-04-18T09:33:32.616Z,101238.31
2023-04-18T09:36:19.640Z,101240.03
2023-04-18T09:38:53.725Z,101240.56
2023-04-18T09:41:24.584Z,101240.59
2023-04-18T09:44:14.450Z,101242.72
2023-04-18T09:46:47.472Z,101236.41
2023-04-18T09:49:16.986Z,101241.50
2023-04-18T09:51:46.802Z,101237.72
2023-04-18T09:54:18.181Z,101231.06
2023-04-18T09:56:51.824Z,101233.81
2023-04-18T09:59:34.419Z,101236.97
2023-04-18T10:02:08.088Z,101231.34
2023-04-18T10:04:37.229Z,101233.41
2023-04-18T10:07:07.373Z,101238.31
2023-04-18T10:09:36.797Z,101236.41
2023-04-18T10:12:07.671Z,101230.59
2023-04-18T10:14:37.319Z,101231.28
2023-04-18T10:17:07.323Z,101232.75
2023-04-18T10:19:36.596Z,101228.66
2023-04-18T10:22:04.833Z,101228.47
2023-04-18T10:24:49.937Z,101212.47
2023-04-18T10:27:19.453Z,101222.41
2023-04-18T10:29:48.703Z,101219.91
2023-04-18T10:32:19.688Z,101211.44
2023-04-18T10:34:48.939Z,101216.63
2023-04-18T10:37:20.908Z,101216.53
2023-04-18T10:39:52.763Z,101222.78
2023-04-18T10:42:49.714Z,101216.63
2023-04-18T10:45:19.006Z,101212.53
2023-04-18T10:47:49.190Z,101215.59
2023-04-18T10:50:18.786Z,101216.75
2023-04-18T10:52:46.947Z,101222.16
2023-04-18T10:55:21.251Z,101220.09
2023-04-18T10:57:51.377Z,101215.03
2023-04-18T11:00:21.602Z,101207.19
2023-04-18T11:02:56.009Z,101189.44
2023-04-18T11:05:26.972Z,101189.28
2023-04-18T11:07:56.041Z,101174.03
2023-04-18T11:10:29.693Z,101184.53
2023-04-18T11:13:04.490Z,101184.94
2023-04-18T11:15:35.389Z,101189.75
2023-04-18T11:18:05.952Z,101184.91
2023-04-18T11:20:39.751Z,101180.81
2023-04-18T11:23:19.038Z,101173.19
2023-04-18T11:25:47.608Z,101181.13
2023-04-18T11:28:20.835Z,101180.13
2023-04-18T11:30:49.872Z,101171.09
2023-04-18T11:33:19.476Z,101170.66
2023-04-18T11:35:48.059Z,101168.41
2023-04-18T11:38:17.199Z,101163.25
2023-04-18T11:40:49.330Z,101161.75
2023-04-18T11:43:23.147Z,101157.22
2023-04-18T11:45:56.663Z,101157.63
2023-04-18T11:48:36.176Z,101160.91
2023-04-18T11:51:04.748Z,101161.94
2023-04-18T11:53:38.092Z,101171.16
2023-04-18T11:56:07.278Z,101165.00
2023-04-18T11:58:36.684Z,101170.69
2023-04-18T12:01:16.971Z,101170.38
2023-04-18T12:04:01.169Z,101187.09
2023-04-18T12:06:29.605Z,101176.19
2023-04-18T12:09:01.430Z,101182.75
2023-04-18T12:11:30.458Z,101162.56
2023-04-18T12:13:58.730Z,101171.81
2023-04-18T12:16:29.179Z,101174.19
2023-04-18T12:19:03.083Z,101173.44
2023-04-18T12:21:32.959Z,101170.41
2023-04-18T12:24:01.533Z,101169.25
2023-04-18T12:26:30.546Z,101168.59
2023-04-18T12:29:01.949Z,101179.22
2023-04-18T12:31:30.257Z,101187.44
2023-04-18T12:34:00.008Z,101184.22
2023-04-18T12:36:29.631Z,101171.41
2023-04-18T12:38:58.591Z,101166.38
2023-04-18T12:41:27.301Z,101177.47
2023-04-18T12:43:56.489Z,101179.00
2023-04-18T12:46:25.419Z,101184.72
2023-04-18T12:48:53.740Z,101185.28
2023-04-18T12:51:23.021Z,101174.53
2023-04-18T12:53:53.429Z,101177.06
2023-04-18T12:56:25.282Z,101169.16
2023-04-18T12:58:54.722Z,101167.16
2023-04-18T13:01:24.297Z,101170.41
2023-04-18T13:04:04.067Z,101170.66
2023-04-18T13:06:39.560Z,101171.66
2023-04-18T13:09:10.369Z,101171.06
2023-04-18T13:11:40.613Z,101156.00
2023-04-18T13:14:09.190Z,101167.97
2023-04-18T13:16:40.106Z,101164.75
2023-04-18T13:19:13.464Z,101165.81
2023-04-18T13:21:42.143Z,101162.00
2023-04-18T13:24:12.251Z,101164.56
2023-04-18T13:26:41.117Z,101162.38
2023-04-18T13:29:11.601Z,101167.97
2023-04-18T13:31:40.169Z,101159.56
2023-04-18T13:34:08.826Z,101167.50
2023-04-18T13:36:37.421Z,101166.06
2023-04-18T13:39:05.943Z,101160.38
2023-04-18T13:41:35.885Z,101176.00
2023-04-18T13:44:05.089Z,101163.66
2023-04-18T13:46:33.416Z,101156.44
2023-04-18T13:49:02.428Z,101161.47
2023-04-18T13:51:31.067Z,101160.41
2023-04-18T13:54:01.072Z,101159.56
2023-04-18T13:56:30.051Z,101156.41
2023-04-18T13:58:59.576Z,101157.50
2023-04-18T14:01:27.861Z,101160.56
2023-04-18T14:03:56.636Z,101156.59
2023-04-18T14:06:27.818Z,101154.13
2023-04-18T14:08:56.528Z,101151.16
2023-04-18T14:11:24.859Z,101149.50
2023-04-18T14:13:53.232Z,101149.09
2023-04-18T14:16:23.401Z,101144.81
2023-04-18T14:18:51.949Z,101144.00
2023-04-18T14:21:20.167Z,101137.06
2023-04-18T14:23:48.826Z,101142.25
2023-04-18T14:26:17.644Z,101131.53
2023-04-18T14:28:46.990Z,101129.13
2023-04-18T14:31:16.800Z,101121.47
2023-04-18T14:33:46.523Z,101125.13
2023-04-18T14:36:16.896Z,101126.50
2023-04-18T14:38:48.971Z,101137.00
2023-04-18T14:41:17.873Z,101125.88
2023-04-18T14:43:46.253Z,101126.22
2023-04-18T14:46:16.488Z,101126.38
2023-04-18T14:48:47.636Z,101119.66
2023-04-18T14:51:16.425Z,101119.41
2023-04-18T14:53:45.831Z,101121.03
2023-04-18T14:56:16.434Z,101123.63
2023-04-18T14:58:44.985Z,101117.16
2023-04-18T15:01:13.299Z,101123.69
2023-04-18T15:03:41.994Z,101114.47
2023-04-18T15:06:12.086Z,101111.31
2023-04-18T15:08:40.736Z,101116.25
2023-04-18T15:11:09.055Z,101109.72
2023-04-18T15:13:39.061Z,101111.63
2023-04-18T15:16:08.450Z,101112.47
2023-04-18T15:18:37.275Z,101111.16
2023-04-18T15:21:05.808Z,101112.06
2023-04-18T15:23:35.306Z,101112.31
2023-04-18T15:26:03.824Z,101120.72
2023-04-18T15:28:32.838Z,101125.81
2023-04-18T15:31:01.513Z,101117.38
2023-04-18T15:33:29.713Z,101114.84
2023-04-18T15:35:59.386Z,101124.66
2023-04-18T15:38:27.494Z,101116.09
2023-04-18T15:40:57.842Z,101109.94
2023-04-18T15:43:26.481Z,101118.09
2023-04-18T15:45:54.945Z,101112.88
2023-04-18T15:48:23.865Z,101115.63
2023-04-18T15:50:54.192Z,101107.03
2023-04-18T15:53:24.267Z,101101.13
2023-04-18T15:55:53.713Z,101097.53
2023-04-18T15:58:24.302Z,101107.19
2023-04-18T16:00:52.770Z,101100.94
2023-04-18T16:03:23.778Z,101102.00
2023-04-18T16:05:53.593Z,101104.56
2023-04-18T16:08:21.912Z,101109.31
2023-04-18T16:10:53.725Z,101112.59
2023-04-18T16:13:23.299Z,101113.84
2023-04-18T16:15:51.762Z,101112.03
2023-04-18T16:18:20.210Z,101109.91
2023-04-18T16:20:48.477Z,101098.97
2023-04-18T16:23:16.942Z,101107.47
2023-04-18T16:25:45.808Z,101109.91
2023-04-18T16:28:14.464Z,101111.56
2023-04-18T16:30:45.740Z,101115.16
2023-04-18T16:33:14.162Z,101118.28
2023-04-18T16:35:42.843Z,101119.78
2023-04-18T16:38:11.093Z,101119.41
2023-04-18T16:40:39.914Z,101125.91
2023-04-18T16:43:08.081Z,101122.75
2023-04-18T16:45:36.498Z,101131.91
2023-04-18T16:48:06.792Z,101133.00
2023-04-18T16:50:35.189Z,101131.19
2023-04-18T16:53:03.364Z,101125.41
2023-04-18T16:55:34.351Z,101134.78
2023-04-18T16:58:10.230Z,101137.94
2023-04-18T17:00:38.803Z,101142.97
2023-04-18T17:03:10.430Z,101143.09
2023-04-18T17:05:39.527Z,101150.06
2023-04-18T17:08:08.639Z,101147.88
2023-04-18T17:10:36.942Z,101149.72
2023-04-18T17:13:05.878Z,101149.19
2023-04-18T17:15:34.179Z,101161.94
2023-04-18T17:18:03.040Z,101150.50
2023-04-18T17:20:36.246Z,101154.22
2023-04-18T17:23:04.890Z,101160.81
2023-04-18T17:25:33.362Z,101152.06
2023-04-18T17:28:02.735Z,101156.72
2023-04-18T17:30:31.324Z,101161.03
2023-04-18T17:32:59.581Z,101168.84
2023-04-18T17:35:29.325Z,101165.13
2023-04-18T17:37:59.859Z,101159.97
2023-04-18T17:40:28.830Z,101172.44
2023-04-18T17:42:57.017Z,101178.66
2023-04-18T17:45:26.209Z,101174.53
2023-04-18T17:47:57.069Z,101179.00
2023-04-18T17:50:25.754Z,101194.63
2023-04-18T17:52:56.311Z,101189.66
2023-04-18T17:55:30.306Z,101196.50
2023-04-18T17:57:58.501Z,101202.06
2023-04-18T18:00:27.552Z,101194.47
2023-04-18T18:02:58.112Z,101202.47
2023-04-18T18:05:27.160Z,101204.13
2023-04-18T18:07:57.565Z,101202.44
2023-04-18T18:10:26.647Z,101209.53
2023-04-18T18:12:58.038Z,101217.69
2023-04-18T18:15:26.321Z,101217.88
2023-04-18T18:17:56.032Z,101213.22
2023-04-18T18:20:27.344Z,101218.59
2023-04-18T18:22:57.415Z,101220.06
2023-04-18T18:25:25.932Z,101232.47
2023-04-18T18:27:56.181Z,101225.03
2023-04-18T18:30:28.798Z,101224.88
2023-04-18T18:32:58.456Z,101228.75
2023-04-18T18:35:27.771Z,101236.91
2023-04-18T18:37:58.783Z,101240.59
2023-04-18T18:40:27.220Z,101228.91
2023-04-18T18:42:57.598Z,101244.13
2023-04-18T18:45:27.364Z,101247.66
2023-04-18T18:47:55.769Z,101254.66
2023-04-18T18:50:24.545Z,101254.09
2023-04-18T18:52:52.796Z,101256.66
2023-04-18T18:55:22.094Z,101272.94
2023-04-18T18:57:50.491Z,101272.94
2023-04-18T19:00:19.411Z,101271.06
2023-04-18T19:02:49.615Z,101276.63
2023-04-18T19:05:17.928Z,101279.81
2023-04-18T19:07:46.011Z,101284.28
2023-04-18T19:10:14.301Z,101279.06
2023-04-18T19:12:42.815Z,101281.94
2023-04-18T19:15:13.003Z,101285.25
2023-04-18T19:17:41.680Z,101273.84
2023-04-18T19:20:14.731Z,101290.00
2023-04-18T19:22:43.079Z,101290.22
2023-04-18T19:25:16.721Z,101289.28
2023-04-18T19:27:46.067Z,101289.25
2023-04-18T19:30:14.468Z,101287.00
2023-04-18T19:32:43.395Z,101286.63
2023-04-18T19:35:17.365Z,101288.16
2023-04-18T19:37:46.445Z,101282.44
2023-04-18T19:40:16.286Z,101282.25
2023-04-18T19:42:46.039Z,101286.28
2023-04-18T19:45:15.233Z,101281.81
2023-04-18T19:47:44.358Z,101289.25
2023-04-18T19:50:17.172Z,101276.03
2023-04-18T19:52:45.448Z,101278.47
2023-04-18T19:55:13.585Z,101282.81
2023-04-18T19:57:42.975Z,101278.84
2023-04-18T20:00:12.938Z,101273.06
2023-04-18T20:02:42.460Z,101286.75
2023-04-18T20:05:12.564Z,101286.75
2023-04-18T20:07:42.697Z,101289.31
2023-04-18T20:10:11.715Z,101284.91
2023-04-18T20:12:41.862Z,101282.25
2023-04-18T20:15:11.217Z,101277.00
2023-04-18T20:17:39.642Z,101279.16
2023-04-18T20:20:11.340Z,101280.47
2023-04-18T20:22:43.312Z,101270.91
2023-04-18T20:25:13.022Z,101280.53
2023-04-18T20:27:41.146Z,101277.47
2023-04-18T20:30:10.069Z,101286.63
2023-04-18T20:32:38.435Z,101286.69
2023-04-18T20:35:08.400Z,101288.09
2023-04-18T20:37:36.820Z,101284.69
2023-04-18T20:40:10.910Z,101283.00
2023-04-18T20:42:40.901Z,101287.06
2023-04-18T20:45:11.087Z,101288.75
2023-04-18T20:47:41.226Z,101282.38
2023-04-18T20:50:10.512Z,101283.72
2023-04-18T20:52:42.868Z,101292.34
2023-04-18T20:55:15.329Z,101282.97
2023-04-18T20:57:45.820Z,101292.97
2023-04-18T21:00:18.406Z,101296.63
2023-04-18T21:02:47.096Z,101291.22
2023-04-18T21:05:16.900Z,101294.88
2023-04-18T21:07:46.628Z,101297.78
2023-04-18T21:10:15.187Z,101292.09
2023-04-18T21:12:43.737Z,101299.28
2023-04-18T21:15:14.812Z,101298.94
2023-04-18T21:17:44.998Z,101298.88
2023-04-18T21:20:16.750Z,101299.34
2023-04-18T21:22:47.971Z,101293.56
2023-04-18T21:25:18.700Z,101286.56
2023-04-18T21:27:50.941Z,101297.13
2023-04-18T21:30:23.253Z,101290.41
2023-04-18T21:32:51.561Z,101293.50
2023-04-18T21:35:21.924Z,101291.53
2023-04-18T21:37:51.892Z,101291.75
2023-04-18T21:40:20.608Z,101293.34
2023-04-18T21:42:51.148Z,101309.25
2023-04-18T21:45:20.724Z,101305.06
2023-04-18T21:47:50.095Z,101298.47
2023-04-18T21:50:18.254Z,101298.63
2023-04-18T21:52:47.503Z,101294.66
2023-04-18T21:55:16.234Z,101294.25
2023-04-18T21:57:44.495Z,101300.88
2023-04-18T22:00:13.767Z,101293.44
2023-04-18T22:02:44.875Z,101292.91
2023-04-18T22:05:13.871Z,101297.19
2023-04-18T22:07:54.524Z,101290.16
2023-04-18T22:10:26.630Z,101289.84
2023-04-18T22:12:56.267Z,101279.06
2023-04-18T22:15:27.848Z,101289.84
2023-04-18T22:17:59.125Z,101284.28
2023-04-18T22:20:27.893Z,101280.78
2023-04-18T22:22:56.593Z,101283.00
2023-04-18T22:25:24.848Z,101287.28
2023-04-18T22:27:54.801Z,101281.84
2023-04-18T22:30:23.747Z,101282.88
2023-04-18T22:32:52.725Z,101285.56
2023-04-18T22:35:22.999Z,101288.25
2023-04-18T22:37:52.378Z,101286.00
2023-04-18T22:40:21.832Z,101283.56
2023-04-18T22:42:51.843Z,101291.63
2023-04-18T22:45:20.434Z,101282.78
2023-04-18T22:47:51.197Z,101289.72
2023-04-18T22:50:23.590Z,101287.28
2023-04-18T22:52:51.886Z,101291.00
2023-04-18T22:55:20.673Z,101294.19
2023-04-18T22:57:48.974Z,101288.84
2023-04-18T23:00:17.760Z,101296.31
2023-04-18T23:02:47.905Z,101294.94
2023-04-18T23:05:18.040Z,101297.53
2023-04-18T23:07:48.066Z,101294.41
2023-04-18T23:10:16.342Z,101294.63
2023-04-18T23:12:44.953Z,101295.16
2023-04-18T23:15:13.107Z,101293.97
2023-04-18T23:17:41.637Z,101292.47
2023-04-18T23:20:11.267Z,101291.09
2023-04-18T23:22:39.734Z,101287.28
2023-04-18T23:25:10.103Z,101289.69
2023-04-18T23:27:38.958Z,101298.47
2023-04-18T23:30:11.556Z,101297.63
2023-04-18T23:32:40.098Z,101292.81
2023-04-18T23:35:08.873Z,101296.31
2023-04-18T23:37:37.201Z,101294.72
2023-04-18T23:40:06.804Z,101291.53
2023-04-18T23:42:37.002Z,101289.91
2023-04-18T23:45:06.775Z,101288.09
2023-04-18T23:47:34.940Z,101291.44
2023-04-18T23:50:05.118Z,101285.03
2023-04-18T23:52:33.458Z,101290.78
2023-04-18T23:55:02.390Z,101297.38
2023-04-18T23:57:32.258Z,101290.56
